Time;durP1;ratioP1;P1;durP2;ratioP2;P2;SDS_P1;SDS_P2;PMS_P1;PMS_P2;Temp;Humidity;BMP_temperature;BMP_pressure;BME280_temperature;BME280_humidity;BME280_pressure;Samples;Min_cycle;Max_cycle;Signal;HPM_P1;HPM_P2
2022/11/28 00:01:25;;;;;;;17.98;2.30;;;23.80;92.60;;;;;;5012542;28;20037;-68
2022/11/28 00:03:52;;;;;;;14.15;2.70;;;24.30;91.40;;;;;;5011293;28;20053;-68
2022/11/28 00:06:20;;;;;;;13.40;2.42;;;24.90;90.60;;;;;;5008281;28;20505;-69
2022/11/28 00:08:47;;;;;;;7.18;2.10;;;25.40;91.80;;;;;;5005404;28;20048;-66
2022/11/28 00:11:16;;;;;;;10.20;2.88;;;25.50;85.70;;;;;;5003654;28;20022;-68
2022/11/28 00:13:44;;;;;;;7.40;2.03;;;26.20;89.60;;;;;;5003942;28;20032;-68
2022/11/28 00:16:21;;;;;;;12.90;2.95;;;26.80;80.60;;;;;;5007729;28;20041;-67
2022/11/28 00:18:50;;;;;;;10.15;2.15;;;27.40;80.30;;;;;;5005593;28;20850;-67
2022/11/28 00:21:17;;;;;;;11.60;2.33;;;28.30;79.80;;;;;;5008819;28;20121;-67
2022/11/28 00:23:46;;;;;;;16.83;2.30;;;28.90;71.40;;;;;;5008294;28;20030;-65
2022/11/28 00:26:17;;;;;;;6.65;2.15;;;29.30;65.80;;;;;;5008413;28;20478;-65
2022/11/28 00:28:44;;;;;;;10.35;1.83;;;29.50;67.30;;;;;;5007760;28;20033;-67
2022/11/28 00:31:18;;;;;;;7.63;1.92;;;29.70;65.30;;;;;;5006739;28;20030;-67
2022/11/28 00:33:45;;;;;;;7.05;1.67;;;29.60;62.00;;;;;;5004038;28;20045;-67
2022/11/28 00:36:13;;;;;;;8.57;1.95;;;29.00;62.50;;;;;;5009276;28;20046;-67
2022/11/28 00:38:41;;;;;;;6.90;1.70;;;28.40;64.20;;;;;;5008720;28;20025;-68
2022/11/28 00:41:14;;;;;;;11.75;2.83;;;27.80;69.20;;;;;;5008298;28;20030;-67
2022/11/28 00:43:42;;;;;;;8.07;1.80;;;27.20;69.60;;;;;;5010676;28;20471;-67
2022/11/28 00:46:11;;;;;;;12.68;2.47;;;26.40;76.20;;;;;;5011892;28;20022;-67
2022/11/28 00:48:39;;;;;;;18.30;2.33;;;26.00;77.50;;;;;;5011379;28;20038;-67
2022/11/28 00:51:20;;;;;;;17.38;4.07;;;25.00;80.70;;;;;;5011745;28;20418;-67
2022/11/28 00:53:49;;;;;;;7.60;1.90;;;24.70;85.10;;;;;;5011196;28;20554;-67
2022/11/28 00:56:19;;;;;;;9.20;3.15;;;24.90;87.60;;;;;;5010777;28;20037;-67
2022/11/28 00:58:49;;;;;;;6.85;1.77;;;25.50;88.50;;;;;;5011581;28;20029;-67
2022/11/28 01:01:19;;;;;;;11.20;2.42;;;25.80;82.00;;;;;;5011052;28;20117;-68
2022/11/28 01:03:47;;;;;;;11.65;3.03;;;26.10;80.50;;;;;;5011432;28;20044;-68
2022/11/28 01:06:21;;;;;;;9.93;1.98;;;26.40;80.90;;;;;;5010850;28;20028;-68
2022/11/28 01:08:49;;;;;;;14.07;2.30;;;26.90;78.50;;;;;;5011247;28;20026;-67
2022/11/28 01:11:16;;;;;;;11.45;2.17;;;27.00;76.90;;;;;;5010968;28;20474;-66
2022/11/28 01:13:43;;;;;;;11.55;2.25;;;27.00;77.10;;;;;;5010566;28;20120;-66
2022/11/28 01:16:11;;;;;;;9.63;3.30;;;27.10;74.50;;;;;;5011040;28;20034;-66
2022/11/28 01:18:38;;;;;;;8.40;2.00;;;27.50;73.10;;;;;;5010645;28;20598;-68
2022/11/28 01:21:07;;;;;;;10.27;2.05;;;27.60;72.40;;;;;;5011546;28;20024;-65
2022/11/28 01:23:35;;;;;;;10.70;2.60;;;27.90;70.50;;;;;;5011137;28;20026;-65
2022/11/28 01:26:05;;;;;;;8.20;2.08;;;27.70;71.30;;;;;;5011592;28;20068;-67
2022/11/28 01:28:33;;;;;;;9.35;2.10;;;27.60;72.60;;;;;;5017633;28;20029;-67
2022/11/28 01:31:09;;;;;;;14.93;2.72;;;27.70;69.40;;;;;;5030885;28;20025;-67
2022/11/28 01:33:36;;;;;;;8.85;2.25;;;27.50;67.60;;;;;;5023010;28;20034;-67
2022/11/28 01:36:04;;;;;;;7.43;1.80;;;28.00;72.90;;;;;;5010735;28;20061;-67
2022/11/28 01:38:33;;;;;;;8.35;2.10;;;28.50;72.50;;;;;;5001979;28;20029;-65
2022/11/28 01:41:01;;;;;;;7.65;1.60;;;29.30;69.10;;;;;;5009237;28;20030;-65
2022/11/28 01:43:28;;;;;;;10.55;2.40;;;29.20;67.70;;;;;;5009731;28;20033;-65
2022/11/28 01:45:56;;;;;;;6.45;1.83;;;29.50;62.60;;;;;;5010536;28;20026;-65
2022/11/28 01:48:26;;;;;;;9.63;2.30;;;28.90;60.50;;;;;;5010206;28;20022;-65
2022/11/28 01:50:57;;;;;;;9.35;2.03;;;28.80;62.50;;;;;;5010516;28;20037;-67
2022/11/28 01:53:28;;;;;;;7.88;1.90;;;28.60;62.30;;;;;;5010555;28;20076;-67
2022/11/28 01:56:13;;;;;;;5.78;1.60;;;29.20;66.90;;;;;;5010038;28;21477;-64
2022/11/28 01:58:45;;;;;;;7.85;1.90;;;29.00;60.80;;;;;;5013507;28;20029;-65
2022/11/28 02:01:12;;;;;;;5.07;1.83;;;29.70;65.60;;;;;;5014370;28;20060;-68
2022/11/28 02:03:47;;;;;;;7.20;1.90;;;29.80;62.90;;;;;;5007943;28;20057;-67
2022/11/28 02:06:18;;;;;;;7.43;2.10;;;29.50;59.70;;;;;;5021861;28;20109;-67
2022/11/28 02:08:45;;;;;;;6.82;1.67;;;29.20;60.60;;;;;;5014955;28;20025;-67
2022/11/28 02:11:43;;;;;;;9.05;2.00;;;29.00;60.20;;;;;;5010819;28;20036;-67
2022/11/28 02:14:39;;;;;;;6.60;1.90;;;29.40;59.90;;;;;;5004717;28;20032;-67
2022/11/28 02:17:22;;;;;;;6.88;1.83;;;29.70;58.60;;;;;;5010553;28;20053;-67
2022/11/28 02:20:16;;;;;;;7.25;1.58;;;30.10;57.50;;;;;;5003354;28;20483;-67
2022/11/28 02:23:09;;;;;;;11.15;1.95;;;30.20;58.10;;;;;;5003365;28;20026;-68
2022/11/28 02:26:00;;;;;;;9.82;1.60;;;30.00;59.20;;;;;;5009160;28;20038;-67
2022/11/28 02:29:08;;;;;;;10.43;2.20;;;30.00;58.40;;;;;;5016210;28;20113;-67
2022/11/28 02:31:53;;;;;;;7.57;2.03;;;29.60;58.50;;;;;;5002957;28;20506;-67
2022/11/28 02:34:48;;;;;;;7.20;2.55;;;28.90;60.30;;;;;;5023858;28;20056;-67
2022/11/28 02:37:25;;;;;;;8.30;1.52;;;28.50;61.10;;;;;;5015119;28;20032;-68
2022/11/28 02:40:02;;;;;;;6.80;2.42;;;28.10;61.90;;;;;;5008449;28;20034;-68
2022/11/28 02:43:07;;;;;;;11.70;1.95;;;27.60;64.10;;;;;;5009302;28;20490;-67
2022/11/28 02:45:58;;;;;;;10.20;1.90;;;26.90;65.80;;;;;;5014901;28;20030;-67
2022/11/28 02:48:44;;;;;;;16.92;2.42;;;26.60;69.30;;;;;;5014889;28;20072;-67
2022/11/28 02:51:21;;;;;;;15.80;2.33;;;26.40;70.20;;;;;;5017701;28;20041;-66
2022/11/28 02:53:50;;;;;;;9.45;1.77;;;25.90;70.10;;;;;;5012383;28;20426;-68
2022/11/28 02:56:17;;;;;;;9.85;2.33;;;25.50;72.70;;;;;;5008205;28;20030;-66
2022/11/28 02:58:45;;;;;;;7.78;1.95;;;25.30;75.60;;;;;;5010551;28;20132;-67
2022/11/28 03:01:43;;;;;;;10.15;1.80;;;26.00;72.70;;;;;;5010484;28;20033;-67
2022/11/28 03:04:16;;;;;;;11.68;1.90;;;26.80;73.60;;;;;;5007839;28;20045;-67
2022/11/28 03:06:58;;;;;;;14.95;2.53;;;27.70;68.10;;;;;;5008869;28;20026;-67
2022/11/28 03:09:47;;;;;;;10.60;2.13;;;27.60;64.90;;;;;;5007031;28;20531;-67
2022/11/28 03:12:34;;;;;;;8.50;1.60;;;28.00;66.50;;;;;;5009144;28;20037;-67
2022/11/28 03:15:05;;;;;;;14.38;2.33;;;28.20;65.60;;;;;;4988415;28;20068;-67
2022/11/28 03:17:55;;;;;;;10.85;1.83;;;28.00;66.30;;;;;;5009037;28;20026;-67
2022/11/28 03:20:30;;;;;;;10.90;1.77;;;27.90;63.40;;;;;;5010111;28;20026;-67
2022/11/28 03:23:12;;;;;;;7.25;1.98;;;28.20;64.70;;;;;;5008274;28;20026;-68
2022/11/28 03:25:48;;;;;;;9.23;1.85;;;28.40;64.40;;;;;;5006476;28;20034;-67
2022/11/28 03:28:16;;;;;;;9.73;2.05;;;28.80;63.80;;;;;;5010504;28;20026;-68
2022/11/28 03:30:54;;;;;;;4.72;1.70;;;28.90;63.90;;;;;;5013703;28;20029;-68
2022/11/28 03:33:24;;;;;;;10.90;2.55;;;28.50;64.50;;;;;;5013892;28;20100;-67
2022/11/28 03:36:05;;;;;;;11.20;2.45;;;28.40;64.50;;;;;;5023073;28;20044;-67
2022/11/28 03:38:38;;;;;;;9.38;2.28;;;27.50;66.60;;;;;;5014386;28;20494;-68
2022/11/28 03:41:15;;;;;;;17.33;2.58;;;26.50;69.20;;;;;;5011324;28;20025;-69
2022/11/28 03:43:48;;;;;;;14.05;2.38;;;25.60;73.80;;;;;;5024748;28;20032;-69
2022/11/28 03:46:19;;;;;;;10.77;2.30;;;24.90;77.10;;;;;;5012680;28;20045;-68
2022/11/28 03:48:50;;;;;;;9.85;1.90;;;24.40;82.30;;;;;;5026033;28;20029;-67
2022/11/28 03:51:29;;;;;;;18.30;2.08;;;24.00;83.00;;;;;;5007362;28;20494;-67
2022/11/28 03:54:18;;;;;;;10.52;1.80;;;23.90;85.10;;;;;;5019787;28;20483;-67
2022/11/28 03:57:10;;;;;;;13.73;3.50;;;23.90;87.40;;;;;;5012910;28;20382;-67
2022/11/28 03:59:42;;;;;;;6.90;2.30;;;24.10;86.40;;;;;;5000893;28;20487;-68
2022/11/28 04:02:40;;;;;;;11.90;2.85;;;24.50;87.00;;;;;;5006736;28;20036;-67
2022/11/28 04:05:27;;;;;;;13.20;2.53;;;24.50;84.20;;;;;;5006358;28;20649;-67
2022/11/28 04:08:00;;;;;;;11.20;2.28;;;24.30;84.10;;;;;;5016803;28;20038;-67
2022/11/28 04:10:42;;;;;;;12.90;2.77;;;24.40;85.60;;;;;;5008962;28;20719;-67
2022/11/28 04:13:26;;;;;;;10.88;2.05;;;24.40;83.90;;;;;;5003865;28;20292;-67
2022/11/28 04:15:58;;;;;;;10.10;2.00;;;24.20;84.60;;;;;;5003937;28;20088;-67
2022/11/28 04:18:49;;;;;;;11.63;2.35;;;24.10;84.50;;;;;;5014432;28;20046;-67
2022/11/28 04:21:41;;;;;;;12.95;2.28;;;24.30;85.40;;;;;;5016353;28;20037;-68
2022/11/28 04:24:13;;;;;;;18.73;2.55;;;24.20;85.30;;;;;;5020923;28;20058;-68
2022/11/28 04:26:57;;;;;;;12.05;2.55;;;24.20;85.60;;;;;;4995636;28;20021;-68
2022/11/28 04:29:27;;;;;;;8.07;2.38;;;24.20;87.30;;;;;;5017845;28;20032;-66
2022/11/28 04:31:57;;;;;;;13.35;2.60;;;24.10;84.90;;;;;;5006638;28;20049;-67
2022/11/28 04:34:26;;;;;;;13.45;2.90;;;24.00;85.20;;;;;;5023215;28;20056;-67
2022/11/28 04:36:55;;;;;;;19.85;2.35;;;23.90;85.60;;;;;;5013804;28;20073;-68
2022/11/28 04:39:25;;;;;;;14.52;2.60;;;23.90;86.70;;;;;;5009697;28;20018;-68
2022/11/28 04:42:04;;;;;;;15.90;2.30;;;24.00;85.90;;;;;;5010572;28;20045;-67
2022/11/28 04:44:59;;;;;;;11.52;2.05;;;24.20;87.90;;;;;;5012445;28;20056;-67
2022/11/28 04:47:26;;;;;;;18.20;2.85;;;24.70;85.00;;;;;;5005371;28;20038;-67
2022/11/28 04:49:54;;;;;;;20.23;2.97;;;25.10;82.40;;;;;;5006723;28;20033;-67
2022/11/28 04:52:25;;;;;;;14.70;2.78;;;24.60;81.10;;;;;;5024927;28;20029;-67
2022/11/28 04:55:21;;;;;;;14.18;1.98;;;24.90;82.00;;;;;;5016120;28;20036;-67
2022/11/28 04:58:03;;;;;;;13.73;2.63;;;24.90;80.40;;;;;;5008551;28;20088;-68
2022/11/28 05:00:34;;;;;;;8.52;1.90;;;24.50;81.50;;;;;;5008100;28;20071;-67
2022/11/28 05:03:01;;;;;;;9.43;2.55;;;24.30;83.10;;;;;;5007547;28;20028;-67
2022/11/28 05:05:29;;;;;;;12.70;2.85;;;24.10;84.60;;;;;;5015270;28;20033;-67
2022/11/28 05:08:00;;;;;;;15.00;2.63;;;24.20;83.40;;;;;;5010946;28;20026;-67
2022/11/28 05:10:27;;;;;;;10.15;2.00;;;23.70;86.60;;;;;;5010833;28;20029;-66
2022/11/28 05:12:54;;;;;;;10.65;2.35;;;23.60;86.40;;;;;;5015442;28;20026;-66
2022/11/28 05:15:21;;;;;;;19.48;3.17;;;23.50;88.10;;;;;;5019921;28;20033;-67
2022/11/28 05:17:49;;;;;;;15.00;2.20;;;23.90;86.00;;;;;;5015117;28;20106;-67
2022/11/28 05:20:16;;;;;;;14.32;2.13;;;23.70;85.60;;;;;;5013717;28;20032;-66
2022/11/28 05:22:43;;;;;;;13.05;3.15;;;23.70;86.60;;;;;;5016864;28;20025;-67
2022/11/28 05:25:10;;;;;;;10.48;2.17;;;23.60;86.50;;;;;;5013093;28;20117;-67
2022/11/28 05:27:37;;;;;;;12.25;2.17;;;23.80;86.90;;;;;;5010808;28;20120;-67
2022/11/28 05:30:06;;;;;;;11.82;2.38;;;23.90;84.80;;;;;;5026730;28;20029;-67
2022/11/28 05:32:35;;;;;;;12.15;2.08;;;24.00;85.30;;;;;;5017235;28;20104;-66
2022/11/28 05:35:03;;;;;;;8.73;2.38;;;24.10;84.70;;;;;;5023239;28;20399;-67
2022/11/28 05:37:30;;;;;;;11.60;1.60;;;24.40;85.00;;;;;;5021031;28;20441;-67
2022/11/28 05:39:58;;;;;;;17.90;2.60;;;24.60;82.60;;;;;;5015141;28;20695;-67
2022/11/28 05:42:27;;;;;;;9.70;2.15;;;24.40;83.40;;;;;;5016084;28;20088;-67
2022/11/28 05:44:54;;;;;;;10.93;2.30;;;24.50;81.60;;;;;;5015051;28;20113;-67
2022/11/28 05:47:23;;;;;;;8.70;2.03;;;24.40;82.70;;;;;;5019419;28;20145;-67
2022/11/28 05:49:50;;;;;;;10.57;2.08;;;24.50;82.80;;;;;;5009812;28;20033;-66
2022/11/28 05:52:18;;;;;;;15.25;2.40;;;24.30;83.20;;;;;;5008567;28;20049;-67
2022/11/28 05:54:45;;;;;;;13.77;2.08;;;24.00;83.10;;;;;;5010095;28;20033;-67
2022/11/28 05:57:12;;;;;;;21.08;2.60;;;24.10;84.50;;;;;;5009009;28;20486;-67
2022/11/28 05:59:39;;;;;;;10.82;2.33;;;24.20;82.90;;;;;;5008069;28;20386;-68
2022/11/28 06:02:06;;;;;;;16.77;2.67;;;24.40;83.00;;;;;;5004295;28;20030;-67
2022/11/28 06:04:34;;;;;;;9.90;2.00;;;24.50;81.90;;;;;;5007843;28;20021;-67
2022/11/28 06:07:01;;;;;;;10.43;1.98;;;24.60;82.40;;;;;;5016652;28;20026;-68
2022/11/28 06:09:28;;;;;;;10.93;2.15;;;24.60;81.60;;;;;;5018584;28;20084;-66
2022/11/28 06:11:55;;;;;;;15.57;1.63;;;24.80;80.20;;;;;;4998555;28;20018;-68
2022/11/28 06:14:23;;;;;;;10.57;2.72;;;24.70;80.00;;;;;;5021882;28;20103;-68
2022/11/28 06:16:50;;;;;;;16.33;2.65;;;24.30;79.90;;;;;;5010770;28;20128;-68
2022/11/28 06:19:17;;;;;;;10.32;2.97;;;24.00;82.20;;;;;;5015022;28;20026;-68
2022/11/28 06:21:44;;;;;;;10.68;2.13;;;24.20;82.30;;;;;;5010353;28;20080;-68
2022/11/28 06:24:11;;;;;;;11.65;3.25;;;24.30;82.80;;;;;;5002508;28;20543;-68
2022/11/28 06:26:39;;;;;;;13.18;2.15;;;24.40;81.20;;;;;;5002831;28;20061;-68
2022/11/28 06:29:06;;;;;;;10.43;2.53;;;24.10;83.10;;;;;;5000088;28;20027;-68
2022/11/28 06:31:33;;;;;;;11.00;1.80;;;24.10;83.70;;;;;;5005065;28;20022;-68
2022/11/28 06:34:00;;;;;;;9.55;2.47;;;24.30;82.30;;;;;;5001950;28;20132;-68
2022/11/28 06:36:29;;;;;;;14.15;2.53;;;24.50;81.80;;;;;;5006814;28;20548;-68
2022/11/28 06:38:56;;;;;;;18.10;2.05;;;24.20;82.10;;;;;;5003950;28;20022;-68
2022/11/28 06:41:24;;;;;;;15.15;3.22;;;24.20;81.70;;;;;;5002224;28;20038;-68
2022/11/28 06:43:51;;;;;;;11.18;1.92;;;24.10;82.60;;;;;;5002683;28;20022;-68
2022/11/28 06:46:20;;;;;;;12.80;2.50;;;23.80;83.50;;;;;;5002393;28;20032;-68
2022/11/28 06:48:49;;;;;;;14.32;2.00;;;23.70;84.40;;;;;;5006695;28;20033;-68
2022/11/28 06:51:17;;;;;;;14.13;1.98;;;23.90;85.40;;;;;;5003204;28;20032;-68
2022/11/28 06:53:45;;;;;;;11.50;2.33;;;24.00;85.00;;;;;;5001921;28;20022;-68
2022/11/28 06:56:16;;;;;;;16.52;2.25;;;24.20;83.90;;;;;;5010418;28;20495;-67
2022/11/28 06:58:44;;;;;;;10.55;2.03;;;24.10;83.00;;;;;;5003718;28;20028;-68
2022/11/28 07:01:20;;;;;;;8.95;2.00;;;23.80;83.70;;;;;;5010924;28;20146;-68
2022/11/28 07:03:48;;;;;;;8.52;2.03;;;23.50;84.00;;;;;;5006286;28;20435;-67
2022/11/28 07:06:18;;;;;;;7.97;1.88;;;23.50;85.70;;;;;;5001252;28;20026;-67
2022/11/28 07:08:46;;;;;;;9.60;2.80;;;23.50;85.70;;;;;;5014704;28;20038;-68
2022/11/28 07:11:22;;;;;;;8.15;1.90;;;23.10;86.70;;;;;;5002654;28;20116;-68
2022/11/28 07:13:50;;;;;;;11.88;2.45;;;23.10;87.50;;;;;;5011241;28;20360;-67
2022/11/28 07:16:27;;;;;;;12.32;2.00;;;23.00;87.60;;;;;;5012286;28;20034;-67
2022/11/28 07:18:55;;;;;;;9.90;2.20;;;22.90;89.00;;;;;;5011291;28;20050;-67
2022/11/28 07:21:22;;;;;;;13.60;1.95;;;22.80;88.40;;;;;;5011932;28;20030;-67
2022/11/28 07:23:50;;;;;;;12.38;1.95;;;22.60;89.10;;;;;;5012904;28;20160;-67
2022/11/28 07:26:20;;;;;;;12.70;3.17;;;22.60;90.20;;;;;;5013455;28;20422;-68
2022/11/28 07:28:48;;;;;;;15.13;3.22;;;22.50;90.70;;;;;;5014361;28;20025;-68
2022/11/28 07:31:18;;;;;;;11.55;1.90;;;22.60;90.90;;;;;;5009553;28;20522;-67
2022/11/28 07:33:48;;;;;;;8.90;2.40;;;22.50;91.10;;;;;;5012626;28;20042;-68
2022/11/28 07:36:21;;;;;;;12.60;2.50;;;22.40;90.90;;;;;;5011525;28;20041;-67
2022/11/28 07:38:54;;;;;;;7.03;1.40;;;22.30;91.20;;;;;;5012941;28;20025;-67
2022/11/28 07:41:23;;;;;;;9.77;2.13;;;22.20;91.10;;;;;;5020103;28;20052;-68
2022/11/28 07:43:54;;;;;;;10.45;2.33;;;22.00;91.80;;;;;;5011789;28;20044;-68
2022/11/28 07:46:22;;;;;;;9.90;3.58;;;21.80;92.40;;;;;;5019406;28;20022;-68
2022/11/28 07:48:49;;;;;;;11.75;3.72;;;21.70;93.10;;;;;;5010613;28;20030;-68
2022/11/28 07:51:20;;;;;;;9.07;2.42;;;21.50;93.20;;;;;;5011332;28;20029;-68
2022/11/28 07:53:47;;;;;;;6.97;1.40;;;21.40;94.10;;;;;;5012458;28;20042;-68
2022/11/28 07:56:17;;;;;;;11.27;2.10;;;21.30;94.40;;;;;;5021641;28;20731;-70
2022/11/28 07:58:46;;;;;;;14.98;2.42;;;21.10;95.10;;;;;;5010463;28;20025;-68
2022/11/28 08:01:25;;;;;;;14.55;2.55;;;21.00;95.30;;;;;;5011804;28;20037;-68
2022/11/28 08:03:53;;;;;;;8.52;2.45;;;20.90;95.90;;;;;;5007237;28;20517;-68
2022/11/28 08:06:24;;;;;;;8.40;2.03;;;20.70;96.30;;;;;;5010197;28;20156;-68
2022/11/28 08:08:52;;;;;;;5.85;1.83;;;20.70;96.80;;;;;;5013512;28;20542;-68
2022/11/28 08:11:21;;;;;;;14.05;2.13;;;20.60;96.90;;;;;;5021313;28;20040;-68
2022/11/28 08:13:49;;;;;;;9.60;2.05;;;20.50;97.30;;;;;;5011217;28;20442;-69
2022/11/28 08:16:24;;;;;;;9.77;2.28;;;20.40;97.80;;;;;;5009651;28;20124;-70
2022/11/28 08:18:52;;;;;;;10.77;2.63;;;20.30;98.20;;;;;;5012312;28;20034;-71
2022/11/28 08:21:22;;;;;;;7.35;2.00;;;20.20;98.80;;;;;;5011043;28;20018;-71
2022/11/28 08:23:50;;;;;;;12.43;3.28;;;20.10;99.40;;;;;;5007820;28;20018;-70
2022/11/28 08:26:20;;;;;;;14.35;2.30;;;20.00;99.60;;;;;;5014012;28;20029;-69
2022/11/28 08:28:47;;;;;;;9.65;2.42;;;19.90;99.90;;;;;;5009166;28;20040;-70
2022/11/28 08:31:21;;;;;;;12.52;1.80;;;19.80;99.90;;;;;;5010856;28;20030;-71
2022/11/28 08:33:50;;;;;;;10.80;2.33;;;19.70;99.90;;;;;;5020629;28;20045;-73
2022/11/28 08:36:18;;;;;;;10.20;2.30;;;19.70;99.90;;;;;;5009436;28;20033;-66
2022/11/28 08:38:46;;;;;;;10.88;3.25;;;19.60;99.90;;;;;;5007348;28;20026;-64
2022/11/28 08:41:19;;;;;;;12.10;2.28;;;19.50;99.90;;;;;;5008821;28;20164;-64
2022/11/28 08:43:47;;;;;;;12.05;2.50;;;19.40;99.90;;;;;;5007077;28;20053;-64
2022/11/28 08:46:17;;;;;;;7.40;1.98;;;19.30;99.90;;;;;;5009372;28;20026;-64
2022/11/28 08:48:44;;;;;;;13.40;2.53;;;19.30;99.90;;;;;;5015855;28;20116;-63
2022/11/28 08:51:17;;;;;;;10.27;2.13;;;19.20;99.90;;;;;;5008139;28;20029;-64
2022/11/28 08:53:45;;;;;;;12.20;2.85;;;19.10;99.90;;;;;;5011529;28;20026;-65
2022/11/28 08:56:12;;;;;;;9.88;2.63;;;19.00;99.90;;;;;;5017196;28;20091;-65
2022/11/28 08:58:47;;;;;;;9.10;2.05;;;19.00;99.90;;;;;;5009591;28;20033;-66
2022/11/28 09:01:20;;;;;;;20.38;2.50;;;18.90;99.90;;;;;;5013420;28;20034;-64
2022/11/28 09:03:48;;;;;;;9.80;2.40;;;18.90;99.90;;;;;;5007046;28;20026;-64
2022/11/28 09:06:19;;;;;;;14.32;4.38;;;18.80;99.90;;;;;;5009078;28;20036;-64
2022/11/28 09:08:47;;;;;;;11.63;2.55;;;18.80;99.90;;;;;;5009040;28;20114;-63
2022/11/28 09:11:17;;;;;;;9.93;2.03;;;18.70;99.90;;;;;;5004504;28;20117;-64
2022/11/28 09:13:45;;;;;;;7.18;2.63;;;18.70;99.90;;;;;;5007064;28;20034;-63
2022/11/28 09:16:15;;;;;;;12.50;2.50;;;18.60;99.90;;;;;;5008162;28;20064;-63
2022/11/28 09:18:43;;;;;;;11.15;2.67;;;18.60;99.90;;;;;;4998499;28;20026;-63
2022/11/28 09:21:12;;;;;;;10.75;2.17;;;18.50;99.90;;;;;;5005690;28;20117;-64
2022/11/28 09:23:41;;;;;;;7.18;1.98;;;18.40;99.90;;;;;;5015657;28;20053;-63
2022/11/28 09:26:17;;;;;;;13.85;2.28;;;18.40;99.90;;;;;;5003831;28;20034;-64
2022/11/28 09:28:45;;;;;;;14.15;2.05;;;18.30;99.90;;;;;;4991852;28;20060;-64
2022/11/28 09:31:14;;;;;;;5.32;1.65;;;18.30;99.90;;;;;;5013480;28;20025;-64
2022/11/28 09:33:42;;;;;;;16.92;3.28;;;18.20;99.90;;;;;;5017771;28;20162;-63
2022/11/28 09:36:20;;;;;;;20.73;2.78;;;18.20;99.90;;;;;;5013095;28;20849;-63
2022/11/28 09:38:48;;;;;;;10.27;2.90;;;18.20;99.90;;;;;;5008947;28;20095;-64
2022/11/28 09:41:30;;;;;;;7.10;1.83;;;18.10;99.90;;;;;;5004773;28;20061;-64
2022/11/28 09:44:06;;;;;;;12.02;3.13;;;18.00;99.90;;;;;;5003369;28;20039;-65
2022/11/28 09:46:41;;;;;;;15.93;3.25;;;18.00;99.90;;;;;;5011896;28;20382;-64
2022/11/28 09:49:33;;;;;;;12.90;1.95;;;18.00;99.90;;;;;;5000103;28;20511;-64
2022/11/28 09:52:30;;;;;;;12.40;2.80;;;17.90;99.90;;;;;;5003421;28;21186;-63
2022/11/28 09:55:13;;;;;;;21.35;4.25;;;17.80;99.90;;;;;;4982460;28;20050;-64
2022/11/28 09:57:49;;;;;;;8.50;1.77;;;17.80;99.90;;;;;;5005070;28;20018;-64
2022/11/28 10:00:21;;;;;;;10.07;3.30;;;17.70;99.90;;;;;;5005113;28;20427;-64
2022/11/28 10:03:17;;;;;;;15.15;2.47;;;17.60;99.90;;;;;;5011104;28;20060;-63
2022/11/28 10:06:00;;;;;;;8.55;2.15;;;17.50;99.90;;;;;;5003113;28;20121;-64
2022/11/28 10:08:55;;;;;;;11.35;2.20;;;17.40;99.90;;;;;;5007719;28;20546;-64
2022/11/28 10:11:42;;;;;;;8.93;2.15;;;17.40;99.90;;;;;;5010490;28;20403;-66
2022/11/28 10:14:43;;;;;;;10.32;2.08;;;17.30;99.90;;;;;;5010117;28;20457;-65
2022/11/28 10:17:39;;;;;;;8.52;2.00;;;17.30;99.90;;;;;;5013573;28;20029;-63
2022/11/28 10:20:22;;;;;;;12.60;3.00;;;17.40;99.90;;;;;;4977493;28;20116;-63
2022/11/28 10:22:57;;;;;;;6.80;1.95;;;17.50;99.90;;;;;;4991276;28;20029;-62
2022/11/28 10:25:56;;;;;;;11.85;2.33;;;17.40;99.90;;;;;;5005003;28;20030;-63
2022/11/28 10:28:34;;;;;;;15.95;2.88;;;17.40;99.90;;;;;;5002064;28;20391;-63
2022/11/28 10:31:11;;;;;;;13.15;2.60;;;17.40;99.90;;;;;;5009982;28;20026;-65
2022/11/28 10:34:10;;;;;;;7.03;1.73;;;17.50;99.90;;;;;;5001043;28;20137;-64
2022/11/28 10:36:55;;;;;;;8.55;2.67;;;17.60;99.90;;;;;;5007166;28;20145;-65
2022/11/28 10:39:25;;;;;;;9.95;2.25;;;17.70;99.90;;;;;;5007312;28;20033;-64
2022/11/28 10:42:16;;;;;;;23.17;3.08;;;17.80;99.90;;;;;;5012096;28;20030;-65
2022/11/28 10:45:00;;;;;;;16.98;2.72;;;17.90;99.90;;;;;;5008336;28;20028;-64
2022/11/28 10:47:45;;;;;;;10.15;2.38;;;18.00;99.90;;;;;;5011901;28;20029;-65
2022/11/28 10:50:20;;;;;;;12.68;2.88;;;18.00;99.90;;;;;;5010650;28;20095;-65
2022/11/28 10:52:56;;;;;;;11.52;2.30;;;18.10;99.90;;;;;;5001535;28;20534;-64
2022/11/28 10:55:29;;;;;;;10.95;2.00;;;18.10;99.90;;;;;;5011896;28;20081;-64
2022/11/28 10:58:18;;;;;;;9.70;2.05;;;18.10;99.90;;;;;;5005742;28;20025;-63
2022/11/28 11:00:49;;;;;;;9.57;2.10;;;18.20;99.90;;;;;;4997740;28;20017;-65
2022/11/28 11:03:18;;;;;;;15.02;2.05;;;18.20;99.90;;;;;;5016401;28;20029;-64
2022/11/28 11:05:45;;;;;;;17.90;2.22;;;18.20;99.90;;;;;;5015873;28;20038;-65
2022/11/28 11:08:28;;;;;;;10.70;2.20;;;18.30;99.90;;;;;;5012164;28;20495;-65
2022/11/28 11:11:30;;;;;;;13.18;2.90;;;18.20;99.90;;;;;;5003954;28;20041;-64
2022/11/28 11:14:04;;;;;;;10.55;2.40;;;18.30;99.90;;;;;;5006349;28;20045;-63
2022/11/28 11:17:03;;;;;;;14.40;2.67;;;18.30;99.90;;;;;;5015192;28;20040;-64
2022/11/28 11:19:36;;;;;;;8.57;2.03;;;18.20;99.90;;;;;;5007641;28;20084;-64
2022/11/28 11:22:21;;;;;;;12.88;2.50;;;18.20;99.90;;;;;;5008301;28;20025;-64
2022/11/28 11:25:05;;;;;;;;;;;18.20;99.90;;;;;;5004574;28;20028;-64
2022/11/28 11:27:34;;;;;;;19.52;2.42;;;18.20;99.90;;;;;;5012097;28;20388;-64
2022/11/28 11:30:15;;;;;;;8.63;1.80;;;18.20;99.90;;;;;;5013260;28;20033;-64
2022/11/28 11:32:47;;;;;;;10.70;2.22;;;18.10;99.90;;;;;;5009391;28;20025;-64
2022/11/28 11:35:29;;;;;;;14.95;2.85;;;18.10;99.90;;;;;;5003384;28;20034;-63
2022/11/28 11:38:34;;;;;;;15.10;2.53;;;18.10;99.90;;;;;;5003498;28;20033;-64
2022/11/28 11:41:31;;;;;;;14.23;2.55;;;18.10;99.90;;;;;;4957702;28;20131;-63
2022/11/28 11:44:28;;;;;;;10.30;2.05;;;18.10;99.90;;;;;;4942824;28;20059;-64
2022/11/28 11:47:04;;;;;;;18.15;3.10;;;18.10;99.90;;;;;;5001146;28;20565;-63
2022/11/28 11:49:48;;;;;;;8.95;1.98;;;18.20;99.90;;;;;;5006165;28;20403;-63
2022/11/28 11:52:24;;;;;;;11.23;2.22;;;18.10;99.90;;;;;;5011897;28;20037;-63
2022/11/28 11:55:02;;;;;;;6.72;2.15;;;18.10;99.90;;;;;;5009347;28;20128;-63
2022/11/28 11:57:50;;;;;;;11.65;2.50;;;18.10;99.90;;;;;;5008454;28;20029;-63
2022/11/28 12:00:21;;;;;;;7.78;1.98;;;18.10;99.90;;;;;;5017952;28;20036;-63
2022/11/28 12:03:04;;;;;;;12.70;2.60;;;18.10;99.90;;;;;;5021003;28;20026;-63
2022/11/28 12:05:50;;;;;;;13.93;2.22;;;18.10;99.90;;;;;;5012926;28;20088;-63
2022/11/28 12:08:30;;;;;;;14.75;2.20;;;18.00;99.90;;;;;;5011672;28;20018;-63
2022/11/28 12:11:29;;;;;;;9.45;2.53;;;18.10;99.90;;;;;;5013912;28;20149;-63
2022/11/28 12:14:03;;;;;;;13.10;3.38;;;18.10;99.90;;;;;;5022674;28;20087;-63
2022/11/28 12:17:06;;;;;;;12.45;1.85;;;18.00;99.90;;;;;;5012500;28;20037;-63
2022/11/28 12:20:09;;;;;;;13.55;2.50;;;18.10;99.90;;;;;;5009961;28;20491;-63
2022/11/28 12:23:17;;;;;;;13.48;2.85;;;18.00;99.90;;;;;;4990704;28;20041;-63
2022/11/28 12:25:44;;;;;;;9.02;2.00;;;18.00;99.90;;;;;;5008654;28;20021;-65
2022/11/28 12:28:23;;;;;;;9.48;2.45;;;18.00;99.90;;;;;;5020935;28;20041;-63
2022/11/28 12:31:05;;;;;;;8.75;1.98;;;17.90;99.90;;;;;;5012044;28;20040;-63
2022/11/28 12:33:56;;;;;;;12.73;2.55;;;17.90;99.90;;;;;;5009319;28;20081;-64
2022/11/28 12:36:40;;;;;;;13.95;2.05;;;17.80;99.90;;;;;;5010185;28;20072;-64
2022/11/28 12:39:20;;;;;;;11.38;2.00;;;17.70;99.90;;;;;;5003504;28;20509;-67
2022/11/28 12:42:08;;;;;;;10.63;2.65;;;17.50;99.90;;;;;;5009415;28;20038;-64
2022/11/28 12:44:38;;;;;;;8.07;2.35;;;17.40;99.90;;;;;;5015859;28;20040;-64
2022/11/28 12:47:11;;;;;;;13.43;2.53;;;17.20;99.90;;;;;;5017061;28;20095;-63
2022/11/28 12:50:21;;;;;;;13.05;2.95;;;17.10;99.90;;;;;;5011710;28;20025;-63
2022/11/28 12:53:06;;;;;;;9.93;2.20;;;16.90;99.90;;;;;;5011302;28;20037;-62
2022/11/28 12:55:51;;;;;;;8.80;1.77;;;16.80;99.90;;;;;;5019343;28;20037;-64
2022/11/28 12:58:52;;;;;;;9.50;2.33;;;16.70;99.90;;;;;;5023157;28;20061;-64
2022/11/28 13:01:33;;;;;;;9.27;2.70;;;16.50;99.90;;;;;;5008106;28;20109;-65
2022/11/28 13:04:14;;;;;;;17.40;2.83;;;16.30;99.90;;;;;;5014273;28;20025;-62
2022/11/28 13:07:02;;;;;;;8.93;2.42;;;16.20;99.90;;;;;;5008931;28;20100;-62
2022/11/28 13:09:41;;;;;;;15.60;3.75;;;16.20;99.90;;;;;;5002188;28;20513;-62
2022/11/28 13:12:25;;;;;;;14.10;3.50;;;16.10;99.90;;;;;;5011064;28;20384;-63
2022/11/28 13:14:55;;;;;;;12.25;2.47;;;16.10;99.90;;;;;;5001672;28;20104;-63
2022/11/28 13:17:45;;;;;;;12.35;3.08;;;16.10;99.90;;;;;;5002893;28;20026;-63
2022/11/28 13:20:23;;;;;;;14.90;3.13;;;16.10;99.90;;;;;;5007468;28;20029;-63
2022/11/28 13:22:58;;;;;;;9.73;2.83;;;16.20;99.90;;;;;;5012485;28;20021;-68